aviador You're here:

YSTW Decoded Metar

TAMWORTH in AUSTRALIA
Report Time2018-05-26 17:00:00
UTC Time2018-05-26 17:26:48
Flight Rules vfr VFR
Wind170° at 09 kt
W.Decomp.*RWY 18: 8.4 kt HW 3.2 kt LCW
RWY 12: 7.0 kt HW 5.7 kt RCW
RWY 24: 1.4 kt HW 8.9 kt LCW
W.Rank170° ranks 5
Current wind is above 170° avg. (6.9)
Visibility9999 m
Phenomena:N/A
Clouds:N/A
Expected CloudBase > 1,200 ft AGL from Temp-Dew spread
CeilingNone
Temp08°C (ISA -4)
Dew Point05°C (82% RH)
AAT3.7°C
QNH1027 hPa
Density Alt479 ft
Elevation1,345 ft
Report Wrong Elevation
Raw Report
YSTW 261700Z AUTO 17009KT 9999 // NCD 08/05 Q1027 RF00.0/000.0=

Extra information for YSTW:More info

Metar Taf Metar & Taf Last 4 Metars F.Rules Stats Wind Profile Meteogram Temp Stats Airport Information Weather charts Add Link Nearby VenuesMetar ALERT Operation Metar Decoded Social comments